Terminal Aerodrome Forecast
Issued by NWS St Louis, MO

Home | Current Version | Previous Version | Graphics & Text | Print | Product List | Glossary On
Versions: 1 2 3 4 5 6 7 8 9 10 11 12 13 14 15 16 17 18 19 20 21 22 23 24 25 26 27
485
FTUS43 KLSX 171729
TAFSTL
TAF
KSTL 171729Z 1718/1824 25011G19KT P6SM FEW250
     FM180000 20009KT P6SM SCT250
     FM181200 22005KT P6SM BKN100
     FM182300 25004KT P6SM SCT080=

USA.gov is the U.S. government's official web portal to all federal, state and local government web resources and services.